PWSweather.com
Personal Weather Stations
Station Observations
GEELONGWX1
Bell Post Hill, GeelongAU

Bell Post HillGeelongAU

Lat: -38.101, Lon: 144.326

Elevation: 204

Station Type: Davis Vantage Pro2

http://www.geelongweather.com

High Low Average
Temperature 69.6°F20.9°C 58.9°F14.9°C 62.0°F16.7°C
Dew Point 60.8°F16.0°C 55.9°F13.3°C 58.1°F14.5°C
Winds 10.0 mph 16.1 kmh Calm Calm 4.0 mph SW6.4 kmh SW
Wind Gusts 17.0 mph27.4 kmh -- 9.0 mph14.5 kmh
Humidity 95% 69% 87%
Pressure 29.96 in1014.6 mb 29.87 in1011.5 mb -
Precipitation 1.79 in45.5 mm - -
Hour Temp Dew Point Humidity Winds Wind Gusts Pressure Precip Precip Rate Daily Precip Total
12:00 AM 60.5°F15.8°C 56.3°F13.5°C 86% 9.0 mph SE14.5 kmh SE 14.0 mph22.5 kmh 29.91 in1012.9 mb 0.00 in0.0 mm 0.00 in/hr0.0 mm/hr 0.00 in0.0 mm
12:10 AM 60.5°F15.8°C 56.3°F13.5°C 86% 1.5 mph SE2.4 kmh SE 8.0 mph12.9 kmh 29.90 in1012.5 mb 0.00 in0.0 mm 0.00 in/hr0.0 mm/hr 0.00 in0.0 mm
12:20 AM 60.5°F15.8°C 56.2°F13.4°C 86% 5.6 mph SE9.0 kmh SE 16.0 mph25.7 kmh 29.91 in1012.9 mb 0.00 in0.0 mm 0.00 in/hr0.0 mm/hr 0.00 in0.0 mm
12:30 AM 60.4°F15.8°C 56.2°F13.4°C 86% 7.0 mph N11.3 kmh N 14.0 mph22.5 kmh 29.91 in1012.9 mb 0.00 in0.0 mm 0.00 in/hr0.0 mm/hr 0.00 in0.0 mm
12:40 AM 60.3°F15.7°C 56.1°F13.4°C 86% 2.2 mph SE3.5 kmh SE 1.0 mph1.6 kmh 29.91 in1012.9 mb 0.00 in0.0 mm 0.00 in/hr0.0 mm/hr 0.00 in0.0 mm
12:50 AM 60.3°F15.7°C 56.1°F13.4°C 86% 8.0 mph N12.9 kmh N 17.0 mph27.4 kmh 29.91 in1012.9 mb 0.00 in0.0 mm 0.00 in/hr0.0 mm/hr 0.00 in0.0 mm
01:00 AM 60.2°F15.7°C 56.0°F13.3°C 86% 8.6 mph SE13.8 kmh SE 14.0 mph22.5 kmh 29.91 in1012.9 mb 0.00 in0.0 mm 0.00 in/hr0.0 mm/hr 0.00 in0.0 mm
01:10 AM 60.2°F15.7°C 56.0°F13.3°C 86% 7.1 mph SE11.4 kmh SE 14.0 mph22.5 kmh 29.91 in1012.9 mb 0.00 in0.0 mm 0.00 in/hr0.0 mm/hr 0.00 in0.0 mm
01:20 AM 60.2°F15.7°C 56.0°F13.3°C 86% 2.6 mph N4.2 kmh N 10.0 mph16.1 kmh 29.91 in1012.9 mb 0.00 in0.0 mm 0.00 in/hr0.0 mm/hr 0.00 in0.0 mm
01:30 AM 60.1°F15.6°C 55.9°F13.3°C 86% 5.6 mph ESE9.0 kmh ESE 11.0 mph17.7 kmh 29.91 in1012.9 mb 0.00 in0.0 mm 0.00 in/hr0.0 mm/hr 0.00 in0.0 mm
01:40 AM 60.1°F15.6°C 55.9°F13.3°C 86% 2.2 mph S3.5 kmh S 15.0 mph24.1 kmh 29.90 in1012.5 mb 0.00 in0.0 mm 0.00 in/hr0.0 mm/hr 0.00 in0.0 mm
01:50 AM 60.0°F15.6°C 56.1°F13.4°C 87% 3.7 mph SE6.0 kmh SE 15.0 mph24.1 kmh 29.90 in1012.5 mb 0.00 in0.0 mm 0.00 in/hr0.0 mm/hr 0.00 in0.0 mm
02:00 AM 60.0°F15.6°C 56.1°F13.4°C 87% 5.1 mph N8.2 kmh N 11.0 mph17.7 kmh 29.90 in1012.5 mb 0.00 in0.0 mm 0.00 in/hr0.0 mm/hr 0.00 in0.0 mm
02:10 AM 60.0°F15.6°C 56.1°F13.4°C 87% 2.4 mph SSE3.9 kmh SSE 4.0 mph6.4 kmh 29.89 in1012.2 mb 0.00 in0.0 mm 0.00 in/hr0.0 mm/hr 0.00 in0.0 mm
02:20 AM 60.1°F15.6°C 56.2°F13.4°C 87% 4.3 mph N6.9 kmh N 9.0 mph14.5 kmh 29.90 in1012.5 mb 0.00 in0.0 mm 0.00 in/hr0.0 mm/hr 0.00 in0.0 mm
02:30 AM 60.2°F15.7°C 56.3°F13.5°C 87% 4.2 mph SE6.8 kmh SE 9.0 mph14.5 kmh 29.90 in1012.5 mb 0.00 in0.0 mm 0.00 in/hr0.0 mm/hr 0.00 in0.0 mm
02:40 AM 60.1°F15.6°C 56.3°F13.5°C 87% 7.5 mph N12.1 kmh N 13.0 mph20.9 kmh 29.89 in1012.2 mb 0.00 in0.0 mm 0.00 in/hr0.0 mm/hr 0.00 in0.0 mm
02:50 AM 60.0°F15.6°C 56.1°F13.4°C 87% 2.9 mph S4.7 kmh S 10.0 mph16.1 kmh 29.90 in1012.5 mb 0.00 in0.0 mm 0.00 in/hr0.0 mm/hr 0.00 in0.0 mm
03:00 AM 60.1°F15.6°C 56.2°F13.4°C 87% 4.6 mph S7.4 kmh S 6.0 mph9.7 kmh 29.90 in1012.5 mb 0.00 in0.0 mm 0.00 in/hr0.0 mm/hr 0.00 in0.0 mm
03:10 AM 60.1°F15.6°C 55.9°F13.3°C 86% 7.1 mph SSE11.4 kmh SSE 12.0 mph19.3 kmh 29.90 in1012.5 mb 0.00 in0.0 mm 0.00 in/hr0.0 mm/hr 0.00 in0.0 mm
03:20 AM 60.1°F15.6°C 56.5°F13.6°C 88% 2.5 mph S4.0 kmh S 5.0 mph8.0 kmh 29.89 in1012.2 mb 0.00 in0.0 mm 0.00 in/hr0.0 mm/hr 0.00 in0.0 mm
03:30 AM 59.9°F15.5°C 56.3°F13.5°C 88% 0.9 mph SE1.4 kmh SE 11.0 mph17.7 kmh 29.89 in1012.2 mb 0.00 in0.0 mm 0.00 in/hr0.0 mm/hr 0.00 in0.0 mm
03:40 AM 59.8°F15.4°C 56.3°F13.5°C 88% 5.2 mph SE8.4 kmh SE 10.0 mph16.1 kmh 29.89 in1012.2 mb 0.00 in0.0 mm 0.00 in/hr0.0 mm/hr 0.00 in0.0 mm
03:50 AM 59.7°F15.4°C 56.5°F13.6°C 89% 5.8 mph N9.3 kmh N 10.0 mph16.1 kmh 29.89 in1012.2 mb 0.00 in0.0 mm 0.00 in/hr0.0 mm/hr 0.00 in0.0 mm
04:00 AM 59.6°F15.3°C 56.4°F13.6°C 89% Calm Calm -- 29.89 in1012.2 mb 0.00 in0.0 mm 0.00 in/hr0.0 mm/hr 0.00 in0.0 mm
04:10 AM 59.6°F15.3°C 56.4°F13.6°C 89% 4.3 mph N6.9 kmh N 9.0 mph14.5 kmh 29.88 in1011.9 mb 0.00 in0.0 mm 0.00 in/hr0.0 mm/hr 0.00 in0.0 mm
04:20 AM 59.6°F15.3°C 56.4°F13.6°C 89% 3.0 mph S4.8 kmh S 4.0 mph6.4 kmh 29.88 in1011.9 mb 0.00 in0.0 mm 0.00 in/hr0.0 mm/hr 0.00 in0.0 mm
04:30 AM 59.3°F15.2°C 56.7°F13.7°C 91% 4.7 mph SSW7.6 kmh SSW 13.0 mph20.9 kmh 29.88 in1011.9 mb 0.00 in0.0 mm 0.00 in/hr0.0 mm/hr 0.00 in0.0 mm
04:40 AM 59.1°F15.1°C 56.8°F13.8°C 92% 1.5 mph SSW2.4 kmh SSW 7.0 mph11.3 kmh 29.88 in1011.9 mb 0.00 in0.0 mm 0.00 in/hr0.0 mm/hr 0.00 in0.0 mm
04:50 AM 59.0°F15.0°C 57.0°F13.9°C 93% Calm Calm -- 29.89 in1012.2 mb 0.00 in0.0 mm 0.00 in/hr0.0 mm/hr 0.00 in0.0 mm
05:00 AM 59.0°F15.0°C 57.0°F13.9°C 93% 4.6 mph N7.4 kmh N 13.0 mph20.9 kmh 29.89 in1012.2 mb 0.00 in0.0 mm 0.00 in/hr0.0 mm/hr 0.00 in0.0 mm
05:10 AM 59.0°F15.0°C 57.3°F14.1°C 94% Calm Calm -- 29.89 in1012.2 mb 0.00 in0.0 mm 0.00 in/hr0.0 mm/hr 0.00 in0.0 mm
05:20 AM 58.9°F14.9°C 56.6°F13.7°C 92% 0.7 mph SSE1.1 kmh SSE -- 29.89 in1012.2 mb 0.01 in0.3 mm 0.06 in/hr1.5 mm/hr 0.01 in0.3 mm
05:30 AM 58.9°F14.9°C 56.6°F13.7°C 92% 3.7 mph SSW6.0 kmh SSW 7.0 mph11.3 kmh 29.89 in1012.2 mb 0.00 in0.0 mm 0.00 in/hr0.0 mm/hr 0.01 in0.3 mm
05:40 AM 59.0°F15.0°C 57.3°F14.1°C 94% 6.1 mph S9.8 kmh S 10.0 mph16.1 kmh 29.90 in1012.5 mb 0.00 in0.0 mm 0.00 in/hr0.0 mm/hr 0.01 in0.3 mm
05:50 AM 59.0°F15.0°C 57.0°F13.9°C 93% 1.2 mph SSE1.9 kmh SSE 12.0 mph19.3 kmh 29.90 in1012.5 mb 0.00 in0.0 mm 0.00 in/hr0.0 mm/hr 0.01 in0.3 mm
06:00 AM 59.0°F15.0°C 57.0°F13.9°C 93% 4.7 mph SSE7.6 kmh SSE 7.0 mph11.3 kmh 29.90 in1012.5 mb 0.00 in0.0 mm 0.00 in/hr0.0 mm/hr 0.01 in0.3 mm
06:10 AM 59.0°F15.0°C 57.0°F13.9°C 93% 4.1 mph SSE6.6 kmh SSE 9.0 mph14.5 kmh 29.90 in1012.5 mb 0.00 in0.0 mm 0.00 in/hr0.0 mm/hr 0.01 in0.3 mm
06:20 AM 59.0°F15.0°C 57.0°F13.9°C 93% 2.7 mph S4.3 kmh S 8.0 mph12.9 kmh 29.91 in1012.9 mb 0.00 in0.0 mm 0.00 in/hr0.0 mm/hr 0.01 in0.3 mm
06:30 AM 59.1°F15.1°C 57.4°F14.1°C 94% Calm Calm -- 29.91 in1012.9 mb 0.00 in0.0 mm 0.00 in/hr0.0 mm/hr 0.01 in0.3 mm
06:40 AM 59.2°F15.1°C 57.5°F14.2°C 94% 4.2 mph S6.8 kmh S 7.0 mph11.3 kmh 29.91 in1012.9 mb 0.00 in0.0 mm 0.00 in/hr0.0 mm/hr 0.01 in0.3 mm
06:50 AM 59.3°F15.2°C 57.6°F14.2°C 94% 1.2 mph S1.9 kmh S -- 29.91 in1012.9 mb 0.00 in0.0 mm 0.00 in/hr0.0 mm/hr 0.01 in0.3 mm
07:00 AM 59.4°F15.2°C 57.7°F14.3°C 94% Calm Calm 1.0 mph1.6 kmh 29.91 in1012.9 mb 0.00 in0.0 mm 0.00 in/hr0.0 mm/hr 0.01 in0.3 mm
07:10 AM 59.4°F15.2°C 57.4°F14.1°C 93% 3.6 mph N5.8 kmh N 5.0 mph8.0 kmh 29.92 in1013.2 mb 0.00 in0.0 mm 0.00 in/hr0.0 mm/hr 0.01 in0.3 mm
07:20 AM 59.5°F15.3°C 57.5°F14.2°C 93% 5.2 mph N8.4 kmh N 8.0 mph12.9 kmh 29.92 in1013.2 mb 0.00 in0.0 mm 0.00 in/hr0.0 mm/hr 0.01 in0.3 mm
07:30 AM 60.0°F15.6°C 58.0°F14.4°C 93% 1.8 mph N2.9 kmh N -- 29.92 in1013.2 mb 0.00 in0.0 mm 0.00 in/hr0.0 mm/hr 0.01 in0.3 mm
07:40 AM 60.2°F15.7°C 57.9°F14.4°C 92% 1.8 mph S2.9 kmh S 9.0 mph14.5 kmh 29.92 in1013.2 mb 0.00 in0.0 mm 0.00 in/hr0.0 mm/hr 0.01 in0.3 mm
07:50 AM 60.7°F15.9°C 58.4°F14.7°C 92% 0.2 mph SSW0.3 kmh SSW 6.0 mph9.7 kmh 29.92 in1013.2 mb 0.00 in0.0 mm 0.00 in/hr0.0 mm/hr 0.01 in0.3 mm
08:00 AM 60.9°F16.1°C 58.3°F14.6°C 91% 4.0 mph S6.4 kmh S 10.0 mph16.1 kmh 29.92 in1013.2 mb 0.00 in0.0 mm 0.00 in/hr0.0 mm/hr 0.01 in0.3 mm
08:10 AM 60.8°F16.0°C 58.2°F14.6°C 91% 4.1 mph S6.6 kmh S 10.0 mph16.1 kmh 29.93 in1013.5 mb 0.00 in0.0 mm 0.00 in/hr0.0 mm/hr 0.01 in0.3 mm
08:20 AM 61.2°F16.2°C 58.6°F14.8°C 91% 4.7 mph N7.6 kmh N 10.0 mph16.1 kmh 29.93 in1013.5 mb 0.00 in0.0 mm 0.00 in/hr0.0 mm/hr 0.01 in0.3 mm
08:30 AM 61.4°F16.3°C 58.4°F14.7°C 90% 7.8 mph S12.6 kmh S 14.0 mph22.5 kmh 29.93 in1013.5 mb 0.00 in0.0 mm 0.00 in/hr0.0 mm/hr 0.01 in0.3 mm
08:40 AM 61.1°F16.2°C 58.7°F14.8°C 92% 6.4 mph S10.3 kmh S 11.0 mph17.7 kmh 29.93 in1013.5 mb 0.00 in0.0 mm 0.00 in/hr0.0 mm/hr 0.01 in0.3 mm
08:50 AM 62.5°F16.9°C 60.5°F15.8°C 93% 3.6 mph S5.8 kmh S 12.0 mph19.3 kmh 29.93 in1013.5 mb 0.00 in0.0 mm 0.00 in/hr0.0 mm/hr 0.01 in0.3 mm
09:00 AM 64.0°F17.8°C 59.7°F15.4°C 86% 6.9 mph S11.1 kmh S 12.0 mph19.3 kmh 29.93 in1013.5 mb 0.00 in0.0 mm 0.00 in/hr0.0 mm/hr 0.01 in0.3 mm
09:10 AM 63.6°F17.6°C 59.0°F15.0°C 85% 6.8 mph S10.9 kmh S 11.0 mph17.7 kmh 29.93 in1013.5 mb 0.00 in0.0 mm 0.00 in/hr0.0 mm/hr 0.01 in0.3 mm
09:20 AM 63.2°F17.3°C 58.6°F14.8°C 85% 10.0 mph N16.1 kmh N 16.0 mph25.7 kmh 29.93 in1013.5 mb 0.00 in0.0 mm 0.00 in/hr0.0 mm/hr 0.01 in0.3 mm
09:30 AM 63.0°F17.2°C 58.4°F14.7°C 85% 6.8 mph SSW10.9 kmh SSW 11.0 mph17.7 kmh 29.93 in1013.5 mb 0.00 in0.0 mm 0.00 in/hr0.0 mm/hr 0.01 in0.3 mm
09:40 AM 62.5°F16.9°C 58.9°F14.9°C 88% 1.8 mph S2.9 kmh S 12.0 mph19.3 kmh 29.93 in1013.5 mb 0.01 in0.3 mm 0.06 in/hr1.5 mm/hr 0.02 in0.5 mm
09:50 AM 61.9°F16.6°C 58.7°F14.8°C 89% 6.6 mph N10.6 kmh N 10.0 mph16.1 kmh 29.94 in1013.9 mb 0.00 in0.0 mm 0.00 in/hr0.0 mm/hr 0.02 in0.5 mm
10:00 AM 62.1°F16.7°C 58.8°F14.9°C 89% 5.9 mph S9.5 kmh S 10.0 mph16.1 kmh 29.94 in1013.9 mb 0.00 in0.0 mm 0.00 in/hr0.0 mm/hr 0.02 in0.5 mm
10:10 AM 62.8°F17.1°C 58.9°F14.9°C 87% 2.6 mph SSE4.2 kmh SSE 13.0 mph20.9 kmh 29.93 in1013.5 mb 0.00 in0.0 mm 0.00 in/hr0.0 mm/hr 0.02 in0.5 mm
10:20 AM 63.5°F17.5°C 58.6°F14.8°C 84% 5.1 mph SE8.2 kmh SE 13.0 mph20.9 kmh 29.93 in1013.5 mb 0.00 in0.0 mm 0.00 in/hr0.0 mm/hr 0.02 in0.5 mm
10:30 AM 63.6°F17.6°C 59.3°F15.2°C 86% Calm Calm -- 29.93 in1013.5 mb 0.00 in0.0 mm 0.00 in/hr0.0 mm/hr 0.02 in0.5 mm
10:40 AM 63.9°F17.7°C 59.0°F15.0°C 84% 4.9 mph S7.9 kmh S 10.0 mph16.1 kmh 29.94 in1013.9 mb 0.00 in0.0 mm 0.00 in/hr0.0 mm/hr 0.02 in0.5 mm
10:50 AM 64.1°F17.8°C 58.8°F14.9°C 83% 0.6 mph SSW1.0 kmh SSW 13.0 mph20.9 kmh 29.93 in1013.5 mb 0.00 in0.0 mm 0.00 in/hr0.0 mm/hr 0.02 in0.5 mm
11:00 AM 64.7°F18.2°C 59.0°F15.0°C 82% 2.9 mph SSE4.7 kmh SSE 9.0 mph14.5 kmh 29.93 in1013.5 mb 0.00 in0.0 mm 0.00 in/hr0.0 mm/hr 0.02 in0.5 mm
11:10 AM 65.7°F18.7°C 58.7°F14.8°C 78% 0.1 mph S0.2 kmh S -- 29.93 in1013.5 mb 0.00 in0.0 mm 0.00 in/hr0.0 mm/hr 0.02 in0.5 mm
11:20 AM 65.9°F18.8°C 58.8°F14.9°C 78% 0.6 mph SSW1.0 kmh SSW -- 29.92 in1013.2 mb 0.00 in0.0 mm 0.00 in/hr0.0 mm/hr 0.02 in0.5 mm
11:30 AM 66.2°F19.0°C 58.7°F14.8°C 77% 4.7 mph N7.6 kmh N 15.0 mph24.1 kmh 29.92 in1013.2 mb 0.00 in0.0 mm 0.00 in/hr0.0 mm/hr 0.02 in0.5 mm
11:40 AM 65.8°F18.8°C 58.7°F14.8°C 78% 2.5 mph SE4.0 kmh SE 5.0 mph8.0 kmh 29.92 in1013.2 mb 0.00 in0.0 mm 0.00 in/hr0.0 mm/hr 0.02 in0.5 mm
11:50 AM 66.3°F19.1°C 58.5°F14.7°C 76% 1.4 mph S2.3 kmh S 10.0 mph16.1 kmh 29.92 in1013.2 mb 0.00 in0.0 mm 0.00 in/hr0.0 mm/hr 0.02 in0.5 mm
12:00 PM 66.6°F19.2°C 58.0°F14.4°C 74% 6.1 mph S9.8 kmh S 13.0 mph20.9 kmh 29.92 in1013.2 mb 0.00 in0.0 mm 0.00 in/hr0.0 mm/hr 0.02 in0.5 mm
12:10 PM 66.9°F19.4°C 58.3°F14.6°C 74% 1.5 mph SSW2.4 kmh SSW 16.0 mph25.7 kmh 29.92 in1013.2 mb 0.00 in0.0 mm 0.00 in/hr0.0 mm/hr 0.02 in0.5 mm
12:20 PM 67.8°F19.9°C 59.2°F15.1°C 74% 3.9 mph SSE6.3 kmh SSE 12.0 mph19.3 kmh 29.92 in1013.2 mb 0.00 in0.0 mm 0.00 in/hr0.0 mm/hr 0.02 in0.5 mm
12:30 PM 68.5°F20.3°C 57.9°F14.4°C 69% 0.4 mph N0.6 kmh N 15.0 mph24.1 kmh 29.92 in1013.2 mb 0.00 in0.0 mm 0.00 in/hr0.0 mm/hr 0.02 in0.5 mm
12:40 PM 67.2°F19.6°C 57.9°F14.4°C 72% 5.3 mph S8.5 kmh S 13.0 mph20.9 kmh 29.92 in1013.2 mb 0.00 in0.0 mm 0.00 in/hr0.0 mm/hr 0.02 in0.5 mm
12:50 PM 67.8°F19.9°C 58.1°F14.5°C 71% 8.0 mph N12.9 kmh N 14.0 mph22.5 kmh 29.91 in1012.9 mb 0.00 in0.0 mm 0.00 in/hr0.0 mm/hr 0.02 in0.5 mm
01:00 PM 67.6°F19.8°C 57.8°F14.3°C 71% 7.8 mph SSW12.6 kmh SSW 11.0 mph17.7 kmh 29.91 in1012.9 mb 0.00 in0.0 mm 0.00 in/hr0.0 mm/hr 0.02 in0.5 mm
01:10 PM 67.1°F19.5°C 58.5°F14.7°C 74% 2.3 mph N3.7 kmh N 13.0 mph20.9 kmh 29.91 in1012.9 mb 0.00 in0.0 mm 0.00 in/hr0.0 mm/hr 0.02 in0.5 mm
01:20 PM 67.2°F19.6°C 58.6°F14.8°C 74% 6.4 mph N10.3 kmh N 16.0 mph25.7 kmh 29.91 in1012.9 mb 0.00 in0.0 mm 0.00 in/hr0.0 mm/hr 0.02 in0.5 mm
01:30 PM 67.7°F19.8°C 59.1°F15.1°C 74% 1.7 mph S2.7 kmh S 11.0 mph17.7 kmh 29.91 in1012.9 mb 0.00 in0.0 mm 0.00 in/hr0.0 mm/hr 0.02 in0.5 mm
01:40 PM 67.1°F19.5°C 59.3°F15.2°C 76% 3.9 mph S6.3 kmh S 11.0 mph17.7 kmh 29.91 in1012.9 mb 0.00 in0.0 mm 0.00 in/hr0.0 mm/hr 0.02 in0.5 mm
01:50 PM 66.9°F19.4°C 59.1°F15.1°C 76% 6.9 mph N11.1 kmh N 11.0 mph17.7 kmh 29.90 in1012.5 mb 0.00 in0.0 mm 0.00 in/hr0.0 mm/hr 0.02 in0.5 mm
02:00 PM 67.7°F19.8°C 59.1°F15.1°C 74% 0.7 mph N1.1 kmh N 10.0 mph16.1 kmh 29.90 in1012.5 mb 0.00 in0.0 mm 0.00 in/hr0.0 mm/hr 0.02 in0.5 mm
02:10 PM 68.6°F20.3°C 58.8°F14.9°C 71% 4.3 mph SW6.9 kmh SW 12.0 mph19.3 kmh 29.90 in1012.5 mb 0.00 in0.0 mm 0.00 in/hr0.0 mm/hr 0.02 in0.5 mm
02:20 PM 69.6°F20.9°C 59.4°F15.2°C 70% 6.2 mph SW10.0 kmh SW 16.0 mph25.7 kmh 29.89 in1012.2 mb 0.00 in0.0 mm 0.00 in/hr0.0 mm/hr 0.02 in0.5 mm
02:30 PM 68.6°F20.3°C 60.4°F15.8°C 75% 6.1 mph SSE9.8 kmh SSE 11.0 mph17.7 kmh 29.89 in1012.2 mb 0.00 in0.0 mm 0.00 in/hr0.0 mm/hr 0.02 in0.5 mm
02:40 PM 66.2°F19.0°C 60.8°F16.0°C 83% 4.8 mph SW7.7 kmh SW 11.0 mph17.7 kmh 29.89 in1012.2 mb 0.00 in0.0 mm 0.00 in/hr0.0 mm/hr 0.02 in0.5 mm
02:50 PM 64.8°F18.2°C 60.5°F15.8°C 86% 1.6 mph SSW2.6 kmh SSW 10.0 mph16.1 kmh 29.89 in1012.2 mb 0.00 in0.0 mm 0.00 in/hr0.0 mm/hr 0.02 in0.5 mm
03:00 PM 64.6°F18.1°C 60.0°F15.6°C 85% Calm Calm -- 29.89 in1012.2 mb 0.00 in0.0 mm 0.00 in/hr0.0 mm/hr 0.02 in0.5 mm
03:10 PM 64.8°F18.2°C 59.2°F15.1°C 82% 5.9 mph N9.5 kmh N 12.0 mph19.3 kmh 29.89 in1012.2 mb 0.00 in0.0 mm 0.00 in/hr0.0 mm/hr 0.02 in0.5 mm
03:20 PM 65.8°F18.8°C 59.8°F15.4°C 81% 3.3 mph SW5.3 kmh SW 12.0 mph19.3 kmh 29.88 in1011.9 mb 0.00 in0.0 mm 0.00 in/hr0.0 mm/hr 0.02 in0.5 mm
03:30 PM 67.2°F19.6°C 60.1°F15.6°C 78% 2.6 mph WSW4.2 kmh WSW 7.0 mph11.3 kmh 29.88 in1011.9 mb 0.00 in0.0 mm 0.00 in/hr0.0 mm/hr 0.02 in0.5 mm
03:40 PM 66.8°F19.3°C 58.6°F14.8°C 75% 4.1 mph SW6.6 kmh SW 9.0 mph14.5 kmh 29.88 in1011.9 mb 0.01 in0.3 mm 0.06 in/hr1.5 mm/hr 0.03 in0.8 mm
03:50 PM 65.5°F18.6°C 58.8°F14.9°C 79% 3.4 mph SSW5.5 kmh SSW 8.0 mph12.9 kmh 29.89 in1012.2 mb 0.00 in0.0 mm 0.00 in/hr0.0 mm/hr 0.03 in0.8 mm
04:00 PM 64.4°F18.0°C 59.1°F15.1°C 83% 3.1 mph N5.0 kmh N 11.0 mph17.7 kmh 29.89 in1012.2 mb 0.00 in0.0 mm 0.00 in/hr0.0 mm/hr 0.03 in0.8 mm
04:10 PM 63.8°F17.7°C 58.5°F14.7°C 83% 5.9 mph SW9.5 kmh SW 12.0 mph19.3 kmh 29.88 in1011.9 mb 0.00 in0.0 mm 0.00 in/hr0.0 mm/hr 0.03 in0.8 mm
04:20 PM 63.7°F17.6°C 58.8°F14.9°C 84% 3.7 mph SW6.0 kmh SW 13.0 mph20.9 kmh 29.88 in1011.9 mb 0.00 in0.0 mm 0.00 in/hr0.0 mm/hr 0.03 in0.8 mm
04:30 PM 63.6°F17.6°C 58.7°F14.8°C 84% 2.3 mph WSW3.7 kmh WSW 11.0 mph17.7 kmh 29.88 in1011.9 mb 0.00 in0.0 mm 0.00 in/hr0.0 mm/hr 0.03 in0.8 mm
04:40 PM 63.1°F17.3°C 58.8°F14.9°C 86% 3.2 mph SW5.1 kmh SW 13.0 mph20.9 kmh 29.88 in1011.9 mb 0.00 in0.0 mm 0.00 in/hr0.0 mm/hr 0.03 in0.8 mm
04:50 PM 62.5°F16.9°C 58.9°F14.9°C 88% 3.1 mph WSW5.0 kmh WSW 10.0 mph16.1 kmh 29.88 in1011.9 mb 0.00 in0.0 mm 0.00 in/hr0.0 mm/hr 0.03 in0.8 mm
05:00 PM 61.9°F16.6°C 58.9°F14.9°C 90% 2.4 mph N3.9 kmh N 10.0 mph16.1 kmh 29.88 in1011.9 mb 0.00 in0.0 mm 0.00 in/hr0.0 mm/hr 0.03 in0.8 mm
05:10 PM 61.8°F16.6°C 59.4°F15.2°C 92% 0.3 mph N0.5 kmh N 3.0 mph4.8 kmh 29.87 in1011.5 mb 0.00 in0.0 mm 0.00 in/hr0.0 mm/hr 0.03 in0.8 mm
05:20 PM 61.6°F16.4°C 59.3°F15.2°C 92% 1.1 mph SW1.8 kmh SW 9.0 mph14.5 kmh 29.87 in1011.5 mb 0.00 in0.0 mm 0.00 in/hr0.0 mm/hr 0.03 in0.8 mm
05:30 PM 61.6°F16.4°C 59.6°F15.3°C 93% 2.4 mph N3.9 kmh N 2.0 mph3.2 kmh 29.87 in1011.5 mb 0.00 in0.0 mm 0.00 in/hr0.0 mm/hr 0.03 in0.8 mm
05:40 PM 61.6°F16.4°C 59.6°F15.3°C 93% 2.7 mph N4.3 kmh N 6.0 mph9.7 kmh 29.87 in1011.5 mb 0.00 in0.0 mm 0.00 in/hr0.0 mm/hr 0.03 in0.8 mm
05:50 PM 61.5°F16.4°C 59.7°F15.4°C 94% Calm Calm -- 29.88 in1011.9 mb 0.00 in0.0 mm 0.00 in/hr0.0 mm/hr 0.03 in0.8 mm
06:00 PM 61.1°F16.2°C 59.1°F15.1°C 93% 5.7 mph SSE9.2 kmh SSE 13.0 mph20.9 kmh 29.88 in1011.9 mb 0.00 in0.0 mm 0.00 in/hr0.0 mm/hr 0.03 in0.8 mm
06:10 PM 60.6°F15.9°C 58.6°F14.8°C 93% 8.9 mph SSE14.3 kmh SSE 12.0 mph19.3 kmh 29.88 in1011.9 mb 0.05 in1.3 mm 0.30 in/hr7.6 mm/hr 0.09 in2.3 mm
06:20 PM 60.1°F15.6°C 58.4°F14.7°C 94% 3.0 mph S4.8 kmh S 15.0 mph24.1 kmh 29.89 in1012.2 mb 1.04 in26.4 mm 6.24 in/hr158.5 mm/hr 1.12 in28.4 mm
06:30 PM 60.3°F15.7°C 58.9°F14.9°C 95% 1.7 mph S2.7 kmh S 14.0 mph22.5 kmh 29.89 in1012.2 mb 0.43 in10.9 mm 2.58 in/hr65.5 mm/hr 1.42 in36.1 mm
06:40 PM 60.4°F15.8°C 59.0°F15.0°C 95% 4.2 mph S6.8 kmh S 11.0 mph17.7 kmh 29.89 in1012.2 mb 0.11 in2.8 mm 0.66 in/hr16.8 mm/hr 1.52 in38.6 mm
06:50 PM 60.5°F15.8°C 59.1°F15.1°C 95% 2.3 mph S3.7 kmh S 15.0 mph24.1 kmh 29.89 in1012.2 mb 0.03 in0.8 mm 0.18 in/hr4.6 mm/hr 1.54 in39.1 mm
07:00 PM 60.7°F15.9°C 59.3°F15.2°C 95% 4.8 mph N7.7 kmh N 16.0 mph25.7 kmh 29.89 in1012.2 mb 0.04 in1.0 mm 0.05 in/hr1.3 mm/hr 1.60 in40.6 mm
07:10 PM 60.6°F15.9°C 59.2°F15.1°C 95% 0.6 mph N1.0 kmh N -- 29.89 in1012.2 mb 0.06 in1.5 mm 0.36 in/hr9.1 mm/hr 1.64 in41.7 mm
07:20 PM 60.5°F15.8°C 59.1°F15.1°C 95% 2.9 mph S4.7 kmh S 11.0 mph17.7 kmh 29.89 in1012.2 mb 0.02 in0.5 mm 0.12 in/hr3.0 mm/hr 1.65 in41.9 mm
07:30 PM 60.4°F15.8°C 59.0°F15.0°C 95% 5.6 mph SE9.0 kmh SE 11.0 mph17.7 kmh 29.89 in1012.2 mb 0.00 in0.0 mm 0.00 in/hr0.0 mm/hr 1.65 in41.9 mm
07:40 PM 60.5°F15.8°C 59.1°F15.1°C 95% Calm Calm -- 29.89 in1012.2 mb 0.00 in0.0 mm 0.00 in/hr0.0 mm/hr 1.65 in41.9 mm
07:50 PM 60.6°F15.9°C 59.2°F15.1°C 95% 3.4 mph SSE5.5 kmh SSE 9.0 mph14.5 kmh 29.90 in1012.5 mb 0.02 in0.5 mm 0.12 in/hr3.0 mm/hr 1.68 in42.7 mm
08:00 PM 60.7°F15.9°C 59.3°F15.2°C 95% 6.9 mph S11.1 kmh S 14.0 mph22.5 kmh 29.90 in1012.5 mb 0.00 in0.0 mm 0.00 in/hr0.0 mm/hr 1.68 in42.7 mm
08:10 PM 60.5°F15.8°C 58.8°F14.9°C 94% 8.3 mph S13.4 kmh S 14.0 mph22.5 kmh 29.91 in1012.9 mb 0.04 in1.0 mm 0.24 in/hr6.1 mm/hr 1.72 in43.7 mm
08:20 PM 60.3°F15.7°C 58.6°F14.8°C 94% 4.7 mph N7.6 kmh N 7.0 mph11.3 kmh 29.91 in1012.9 mb 0.01 in0.3 mm 0.06 in/hr1.5 mm/hr 1.72 in43.7 mm
08:30 PM 60.2°F15.7°C 58.2°F14.6°C 93% 0.9 mph SSE1.4 kmh SSE -- 29.91 in1012.9 mb 0.01 in0.3 mm 0.06 in/hr1.5 mm/hr 1.73 in43.9 mm
08:40 PM 60.4°F15.8°C 58.4°F14.7°C 93% 2.6 mph S4.2 kmh S 9.0 mph14.5 kmh 29.91 in1012.9 mb 0.00 in0.0 mm 0.00 in/hr0.0 mm/hr 1.73 in43.9 mm
08:50 PM 60.7°F15.9°C 58.7°F14.8°C 93% 4.2 mph S6.8 kmh S 9.0 mph14.5 kmh 29.92 in1013.2 mb 0.00 in0.0 mm 0.00 in/hr0.0 mm/hr 1.73 in43.9 mm
09:00 PM 61.1°F16.2°C 59.1°F15.1°C 93% 6.5 mph ESE10.5 kmh ESE 12.0 mph19.3 kmh 29.92 in1013.2 mb 0.00 in0.0 mm 0.00 in/hr0.0 mm/hr 1.73 in43.9 mm
09:10 PM 61.0°F16.1°C 59.0°F15.0°C 93% 6.1 mph ESE9.8 kmh ESE 13.0 mph20.9 kmh 29.93 in1013.5 mb 0.01 in0.3 mm 0.06 in/hr1.5 mm/hr 1.74 in44.2 mm
09:20 PM 60.6°F15.9°C 58.6°F14.8°C 93% 5.8 mph E9.3 kmh E 10.0 mph16.1 kmh 29.94 in1013.9 mb 0.02 in0.5 mm 0.12 in/hr3.0 mm/hr 1.76 in44.7 mm
09:30 PM 60.2°F15.7°C 58.2°F14.6°C 93% 4.6 mph N7.4 kmh N 11.0 mph17.7 kmh 29.94 in1013.9 mb 0.02 in0.5 mm 0.12 in/hr3.0 mm/hr 1.78 in45.2 mm
09:40 PM 60.0°F15.6°C 57.7°F14.3°C 92% 1.4 mph E2.3 kmh E 6.0 mph9.7 kmh 29.94 in1013.9 mb 0.01 in0.3 mm 0.06 in/hr1.5 mm/hr 1.78 in45.2 mm
09:50 PM 60.2°F15.7°C 57.9°F14.4°C 92% 4.4 mph SE7.1 kmh SE 9.0 mph14.5 kmh 29.94 in1013.9 mb 0.00 in0.0 mm 0.00 in/hr0.0 mm/hr 1.78 in45.2 mm
10:00 PM 60.7°F15.9°C 58.1°F14.5°C 91% 3.0 mph E4.8 kmh E 10.0 mph16.1 kmh 29.94 in1013.9 mb 0.00 in0.0 mm 0.00 in/hr0.0 mm/hr 1.78 in45.2 mm
10:10 PM 61.0°F16.1°C 59.0°F15.0°C 93% 3.8 mph N6.1 kmh N 8.0 mph12.9 kmh 29.95 in1014.2 mb 0.00 in0.0 mm 0.00 in/hr0.0 mm/hr 1.78 in45.2 mm
10:20 PM 61.1°F16.2°C 59.1°F15.1°C 93% Calm Calm 2.0 mph3.2 kmh 29.95 in1014.2 mb 0.01 in0.3 mm 0.06 in/hr1.5 mm/hr 1.79 in45.5 mm
10:30 PM 60.8°F16.0°C 58.5°F14.7°C 92% Calm Calm -- 29.95 in1014.2 mb 0.00 in0.0 mm 0.00 in/hr0.0 mm/hr 1.79 in45.5 mm
10:40 PM 60.7°F15.9°C 58.7°F14.8°C 93% Calm Calm -- 29.95 in1014.2 mb 0.00 in0.0 mm 0.00 in/hr0.0 mm/hr 1.79 in45.5 mm
10:50 PM 60.6°F15.9°C 58.6°F14.8°C 93% Calm Calm -- 29.95 in1014.2 mb 0.00 in0.0 mm 0.00 in/hr0.0 mm/hr 1.79 in45.5 mm
11:00 PM 60.7°F15.9°C 58.7°F14.8°C 93% 0.1 mph SE0.2 kmh SE 4.0 mph6.4 kmh 29.95 in1014.2 mb 0.00 in0.0 mm 0.00 in/hr0.0 mm/hr 1.96 in49.8 mm
11:10 PM 60.8°F16.0°C 58.8°F14.9°C 93% 0.3 mph SSE0.5 kmh SSE 6.0 mph9.7 kmh 29.95 in1014.2 mb 0.00 in0.0 mm 0.00 in/hr0.0 mm/hr 1.96 in49.8 mm
11:20 PM 60.9°F16.1°C 58.6°F14.8°C 92% 2.2 mph SE3.5 kmh SE 6.0 mph9.7 kmh 29.95 in1014.2 mb 0.00 in0.0 mm 0.00 in/hr0.0 mm/hr 1.96 in49.8 mm
11:30 PM 61.1°F16.2°C 58.1°F14.5°C 90% 4.5 mph SE7.2 kmh SE 11.0 mph17.7 kmh 29.95 in1014.2 mb 0.00 in0.0 mm 0.00 in/hr0.0 mm/hr 1.96 in49.8 mm
11:40 PM 61.4°F16.3°C 57.8°F14.3°C 88% 4.7 mph SE7.6 kmh SE 6.0 mph9.7 kmh 29.95 in1014.2 mb 0.00 in0.0 mm 0.00 in/hr0.0 mm/hr 1.96 in49.8 mm
11:50 PM 61.5°F16.4°C 58.2°F14.6°C 89% 0.1 mph SE0.2 kmh SE 9.0 mph14.5 kmh 29.96 in1014.6 mb 0.00 in0.0 mm 0.00 in/hr0.0 mm/hr 1.96 in49.8 mm